sensor_id;sensor_type;location;lat;lon;timestamp;pressure;altitude;pressure_sealevel;temperature;humidity
70559;BME280;58108;48.094;11.838;2024-03-02T00:02:18;94352.38;;;4.02;100.00
70559;BME280;58108;48.094;11.838;2024-03-02T00:04:45;94353.69;;;4.07;100.00
70559;BME280;58108;48.094;11.838;2024-03-02T00:07:14;94351.53;;;4.14;100.00
70559;BME280;58108;48.094;11.838;2024-03-02T00:09:40;94354.16;;;4.26;100.00
70559;BME280;58108;48.094;11.838;2024-03-02T00:12:05;94346.94;;;4.18;100.00
70559;BME280;58108;48.094;11.838;2024-03-02T00:14:31;94345.81;;;3.85;100.00
70559;BME280;58108;48.094;11.838;2024-03-02T00:16:57;94344.44;;;3.92;100.00
70559;BME280;58108;48.094;11.838;2024-03-02T00:19:23;94345.56;;;4.01;100.00
70559;BME280;58108;48.094;11.838;2024-03-02T00:21:48;94342.44;;;3.95;100.00
70559;BME280;58108;48.094;11.838;2024-03-02T00:24:34;94345.78;;;3.60;100.00
70559;BME280;58108;48.094;11.838;2024-03-02T00:27:01;94336.06;;;3.88;100.00
70559;BME280;58108;48.094;11.838;2024-03-02T00:29:29;94334.25;;;4.02;100.00
70559;BME280;58108;48.094;11.838;2024-03-02T00:31:55;94334.44;;;4.12;100.00
70559;BME280;58108;48.094;11.838;2024-03-02T00:34:21;94329.19;;;4.00;100.00
70559;BME280;58108;48.094;11.838;2024-03-02T00:36:47;94330.19;;;4.10;100.00
70559;BME280;58108;48.094;11.838;2024-03-02T00:39:15;94329.19;;;4.24;100.00
70559;BME280;58108;48.094;11.838;2024-03-02T00:41:42;94328.22;;;4.14;100.00
70559;BME280;58108;48.094;11.838;2024-03-02T00:44:09;94329.97;;;4.14;100.00
70559;BME280;58108;48.094;11.838;2024-03-02T00:46:40;94323.22;;;4.11;100.00
70559;BME280;58108;48.094;11.838;2024-03-02T00:49:22;94319.75;;;4.23;100.00
70559;BME280;58108;48.094;11.838;2024-03-02T00:51:50;94317.88;;;4.26;100.00
70559;BME280;58108;48.094;11.838;2024-03-02T00:54:20;94313.28;;;4.18;100.00
70559;BME280;58108;48.094;11.838;2024-03-02T00:56:48;94316.56;;;4.20;100.00
70559;BME280;58108;48.094;11.838;2024-03-02T00:59:14;94312.22;;;4.20;100.00
70559;BME280;58108;48.094;11.838;2024-03-02T01:01:40;94311.88;;;4.25;100.00
70559;BME280;58108;48.094;11.838;2024-03-02T01:04:05;94314.34;;;4.27;100.00
70559;BME280;58108;48.094;11.838;2024-03-02T01:06:31;94304.13;;;4.25;100.00
70559;BME280;58108;48.094;11.838;2024-03-02T01:08:56;94303.34;;;4.12;100.00
70559;BME280;58108;48.094;11.838;2024-03-02T01:11:22;94302.19;;;4.16;100.00
70559;BME280;58108;48.094;11.838;2024-03-02T01:13:48;94301.19;;;4.05;100.00
70559;BME280;58108;48.094;11.838;2024-03-02T01:16:14;94299.78;;;4.01;100.00
70559;BME280;58108;48.094;11.838;2024-03-02T01:18:41;94303.88;;;4.04;100.00
70559;BME280;58108;48.094;11.838;2024-03-02T01:21:07;94296.34;;;4.01;100.00
70559;BME280;58108;48.094;11.838;2024-03-02T01:23:32;94293.38;;;3.94;100.00
70559;BME280;58108;48.094;11.838;2024-03-02T01:25:58;94293.72;;;3.89;100.00
70559;BME280;58108;48.094;11.838;2024-03-02T01:28:23;94296.25;;;4.02;100.00
70559;BME280;58108;48.094;11.838;2024-03-02T01:30:49;94294.78;;;3.98;100.00
70559;BME280;58108;48.094;11.838;2024-03-02T01:33:16;94294.63;;;3.88;100.00
70559;BME280;58108;48.094;11.838;2024-03-02T01:35:43;94295.50;;;4.00;100.00
70559;BME280;58108;48.094;11.838;2024-03-02T01:38:09;94300.59;;;4.02;100.00
70559;BME280;58108;48.094;11.838;2024-03-02T01:40:35;94298.75;;;3.91;100.00
70559;BME280;58108;48.094;11.838;2024-03-02T01:43:00;94303.22;;;3.89;100.00
70559;BME280;58108;48.094;11.838;2024-03-02T01:45:28;94302.78;;;3.95;100.00
70559;BME280;58108;48.094;11.838;2024-03-02T01:47:53;94299.03;;;3.99;100.00
70559;BME280;58108;48.094;11.838;2024-03-02T01:50:29;94299.47;;;3.93;100.00
70559;BME280;58108;48.094;11.838;2024-03-02T01:52:56;94297.53;;;3.83;100.00
70559;BME280;58108;48.094;11.838;2024-03-02T01:55:22;94299.94;;;3.74;100.00
70559;BME280;58108;48.094;11.838;2024-03-02T01:57:51;94302.53;;;3.74;100.00
70559;BME280;58108;48.094;11.838;2024-03-02T02:00:21;94302.94;;;3.80;100.00
70559;BME280;58108;48.094;11.838;2024-03-02T02:02:50;94305.75;;;3.77;100.00
70559;BME280;58108;48.094;11.838;2024-03-02T02:05:16;94302.06;;;3.68;100.00
70559;BME280;58108;48.094;11.838;2024-03-02T02:07:42;94292.34;;;3.59;100.00
70559;BME280;58108;48.094;11.838;2024-03-02T02:10:09;94298.56;;;3.57;100.00
70559;BME280;58108;48.094;11.838;2024-03-02T02:12:35;94297.03;;;3.54;100.00
70559;BME280;58108;48.094;11.838;2024-03-02T02:15:00;94295.69;;;3.48;100.00
70559;BME280;58108;48.094;11.838;2024-03-02T02:17:26;94298.28;;;3.48;100.00
70559;BME280;58108;48.094;11.838;2024-03-02T02:19:52;94290.63;;;3.47;100.00
70559;BME280;58108;48.094;11.838;2024-03-02T02:22:17;94295.81;;;3.47;100.00
70559;BME280;58108;48.094;11.838;2024-03-02T02:24:43;94294.25;;;3.44;100.00
70559;BME280;58108;48.094;11.838;2024-03-02T02:27:09;94286.72;;;3.41;100.00
70559;BME280;58108;48.094;11.838;2024-03-02T02:29:35;94289.78;;;3.46;100.00
70559;BME280;58108;48.094;11.838;2024-03-02T02:32:01;94287.31;;;3.45;100.00
70559;BME280;58108;48.094;11.838;2024-03-02T02:34:26;94282.44;;;3.40;100.00
70559;BME280;58108;48.094;11.838;2024-03-02T02:36:53;94279.47;;;3.33;100.00
70559;BME280;58108;48.094;11.838;2024-03-02T02:39:20;94275.44;;;3.29;100.00
70559;BME280;58108;48.094;11.838;2024-03-02T02:41:47;94276.16;;;3.31;100.00
70559;BME280;58108;48.094;11.838;2024-03-02T02:44:13;94278.00;;;3.42;100.00
70559;BME280;58108;48.094;11.838;2024-03-02T02:46:39;94263.28;;;3.42;100.00
70559;BME280;58108;48.094;11.838;2024-03-02T02:49:05;94267.38;;;3.34;100.00
70559;BME280;58108;48.094;11.838;2024-03-02T02:51:31;94271.38;;;3.75;100.00
70559;BME280;58108;48.094;11.838;2024-03-02T02:53:56;94264.38;;;3.89;100.00
70559;BME280;58108;48.094;11.838;2024-03-02T02:56:22;94270.22;;;4.04;100.00
70559;BME280;58108;48.094;11.838;2024-03-02T02:58:48;94262.06;;;3.73;100.00
70559;BME280;58108;48.094;11.838;2024-03-02T03:01:15;94257.88;;;3.59;100.00
70559;BME280;58108;48.094;11.838;2024-03-02T03:03:42;94252.22;;;3.40;100.00
70559;BME280;58108;48.094;11.838;2024-03-02T03:06:07;94256.19;;;3.33;100.00
70559;BME280;58108;48.094;11.838;2024-03-02T03:08:33;94258.38;;;3.26;100.00
70559;BME280;58108;48.094;11.838;2024-03-02T03:10:58;94260.75;;;3.30;100.00
70559;BME280;58108;48.094;11.838;2024-03-02T03:13:24;94266.81;;;3.41;100.00
70559;BME280;58108;48.094;11.838;2024-03-02T03:15:49;94257.19;;;3.44;100.00
70559;BME280;58108;48.094;11.838;2024-03-02T03:18:15;94258.06;;;3.31;100.00
70559;BME280;58108;48.094;11.838;2024-03-02T03:20:40;94250.28;;;3.31;100.00
70559;BME280;58108;48.094;11.838;2024-03-02T03:23:06;94254.25;;;3.24;100.00
70559;BME280;58108;48.094;11.838;2024-03-02T03:25:31;94258.38;;;3.26;100.00
70559;BME280;58108;48.094;11.838;2024-03-02T03:27:57;94268.28;;;3.46;100.00
70559;BME280;58108;48.094;11.838;2024-03-02T03:30:22;94269.03;;;3.59;100.00
70559;BME280;58108;48.094;11.838;2024-03-02T03:32:48;94269.78;;;3.61;100.00
70559;BME280;58108;48.094;11.838;2024-03-02T03:35:14;94267.44;;;3.45;100.00
70559;BME280;58108;48.094;11.838;2024-03-02T03:37:44;94267.56;;;3.31;100.00
70559;BME280;58108;48.094;11.838;2024-03-02T03:40:10;94274.00;;;3.25;100.00
70559;BME280;58108;48.094;11.838;2024-03-02T03:42:38;94280.13;;;3.24;100.00
70559;BME280;58108;48.094;11.838;2024-03-02T03:45:05;94281.66;;;3.26;100.00
70559;BME280;58108;48.094;11.838;2024-03-02T03:47:32;94277.41;;;3.25;100.00
70559;BME280;58108;48.094;11.838;2024-03-02T03:49:57;94290.03;;;3.30;100.00
70559;BME280;58108;48.094;11.838;2024-03-02T03:52:23;94282.75;;;3.35;100.00
70559;BME280;58108;48.094;11.838;2024-03-02T03:54:49;94292.41;;;3.33;100.00
70559;BME280;58108;48.094;11.838;2024-03-02T03:57:15;94291.28;;;3.37;100.00
70559;BME280;58108;48.094;11.838;2024-03-02T03:59:41;94294.88;;;3.35;100.00
70559;BME280;58108;48.094;11.838;2024-03-02T04:02:07;94295.00;;;3.33;100.00
70559;BME280;58108;48.094;11.838;2024-03-02T04:04:33;94299.03;;;3.37;100.00
70559;BME280;58108;48.094;11.838;2024-03-02T04:06:59;94301.81;;;3.34;100.00
70559;BME280;58108;48.094;11.838;2024-03-02T04:09:24;94300.59;;;3.27;100.00
70559;BME280;58108;48.094;11.838;2024-03-02T04:11:50;94295.22;;;3.30;100.00
70559;BME280;58108;48.094;11.838;2024-03-02T04:14:17;94296.75;;;3.33;100.00
70559;BME280;58108;48.094;11.838;2024-03-02T04:16:42;94295.41;;;3.27;100.00
70559;BME280;58108;48.094;11.838;2024-03-02T04:19:08;94306.06;;;3.48;100.00
70559;BME280;58108;48.094;11.838;2024-03-02T04:21:33;94312.69;;;3.39;100.00
70559;BME280;58108;48.094;11.838;2024-03-02T04:23:59;94306.59;;;3.27;100.00
70559;BME280;58108;48.094;11.838;2024-03-02T04:26:25;94301.97;;;3.57;100.00
70559;BME280;58108;48.094;11.838;2024-03-02T04:28:51;94304.75;;;3.67;100.00
70559;BME280;58108;48.094;11.838;2024-03-02T04:31:17;94298.31;;;3.97;100.00
70559;BME280;58108;48.094;11.838;2024-03-02T04:33:42;94294.63;;;3.64;100.00
70559;BME280;58108;48.094;11.838;2024-03-02T04:36:08;94288.66;;;3.50;100.00
70559;BME280;58108;48.094;11.838;2024-03-02T04:38:35;94303.84;;;3.55;100.00
70559;BME280;58108;48.094;11.838;2024-03-02T04:41:01;94299.53;;;3.42;100.00
70559;BME280;58108;48.094;11.838;2024-03-02T04:43:26;94301.78;;;3.60;100.00
70559;BME280;58108;48.094;11.838;2024-03-02T04:45:52;94305.25;;;3.72;100.00
70559;BME280;58108;48.094;11.838;2024-03-02T04:48:17;94296.41;;;3.50;100.00
70559;BME280;58108;48.094;11.838;2024-03-02T04:50:44;94304.69;;;3.42;100.00
70559;BME280;58108;48.094;11.838;2024-03-02T04:53:10;94308.81;;;3.58;100.00
70559;BME280;58108;48.094;11.838;2024-03-02T04:55:35;94303.16;;;3.77;100.00
70559;BME280;58108;48.094;11.838;2024-03-02T04:58:04;94309.34;;;3.50;100.00
70559;BME280;58108;48.094;11.838;2024-03-02T05:00:29;94304.09;;;3.39;100.00
70559;BME280;58108;48.094;11.838;2024-03-02T05:02:55;94301.00;;;3.34;100.00
70559;BME280;58108;48.094;11.838;2024-03-02T05:05:20;94300.75;;;3.50;100.00
70559;BME280;58108;48.094;11.838;2024-03-02T05:07:46;94307.22;;;3.31;100.00
70559;BME280;58108;48.094;11.838;2024-03-02T05:10:11;94312.81;;;3.25;100.00
70559;BME280;58108;48.094;11.838;2024-03-02T05:12:37;94321.81;;;3.32;100.00
70559;BME280;58108;48.094;11.838;2024-03-02T05:15:12;94332.50;;;3.65;100.00
70559;BME280;58108;48.094;11.838;2024-03-02T05:17:39;94331.16;;;3.96;100.00
70559;BME280;58108;48.094;11.838;2024-03-02T05:20:06;94339.81;;;3.84;100.00
70559;BME280;58108;48.094;11.838;2024-03-02T05:22:33;94344.38;;;3.80;100.00
70559;BME280;58108;48.094;11.838;2024-03-02T05:24:59;94349.50;;;3.93;100.00
70559;BME280;58108;48.094;11.838;2024-03-02T05:27:26;94349.47;;;3.82;100.00
70559;BME280;58108;48.094;11.838;2024-03-02T05:29:52;94352.44;;;3.89;100.00
70559;BME280;58108;48.094;11.838;2024-03-02T05:32:17;94343.94;;;3.87;100.00
70559;BME280;58108;48.094;11.838;2024-03-02T05:34:43;94344.25;;;3.95;100.00
70559;BME280;58108;48.094;11.838;2024-03-02T05:37:08;94342.59;;;3.94;100.00
70559;BME280;58108;48.094;11.838;2024-03-02T05:39:34;94349.59;;;4.05;100.00
70559;BME280;58108;48.094;11.838;2024-03-02T05:41:59;94351.50;;;3.90;100.00
70559;BME280;58108;48.094;11.838;2024-03-02T05:44:25;94342.91;;;3.89;100.00
70559;BME280;58108;48.094;11.838;2024-03-02T05:46:50;94342.44;;;3.71;100.00
70559;BME280;58108;48.094;11.838;2024-03-02T05:49:16;94343.56;;;3.67;100.00
70559;BME280;58108;48.094;11.838;2024-03-02T05:51:41;94347.63;;;3.58;100.00
70559;BME280;58108;48.094;11.838;2024-03-02T05:54:07;94351.78;;;3.48;100.00
70559;BME280;58108;48.094;11.838;2024-03-02T05:56:32;94349.63;;;3.41;100.00
70559;BME280;58108;48.094;11.838;2024-03-02T05:58:58;94351.81;;;3.35;100.00
70559;BME280;58108;48.094;11.838;2024-03-02T06:01:40;94354.81;;;3.41;100.00
70559;BME280;58108;48.094;11.838;2024-03-02T06:04:06;94356.66;;;3.39;100.00
70559;BME280;58108;48.094;11.838;2024-03-02T06:06:33;94356.56;;;3.54;100.00
70559;BME280;58108;48.094;11.838;2024-03-02T06:09:02;94358.13;;;3.94;100.00
70559;BME280;58108;48.094;11.838;2024-03-02T06:11:33;94352.38;;;4.02;100.00
70559;BME280;58108;48.094;11.838;2024-03-02T06:14:00;94356.94;;;3.61;100.00
70559;BME280;58108;48.094;11.838;2024-03-02T06:16:25;94359.00;;;3.55;100.00
70559;BME280;58108;48.094;11.838;2024-03-02T06:18:51;94356.53;;;3.67;100.00
70559;BME280;58108;48.094;11.838;2024-03-02T06:21:16;94365.63;;;3.73;100.00
70559;BME280;58108;48.094;11.838;2024-03-02T06:23:43;94361.31;;;3.60;100.00
70559;BME280;58108;48.094;11.838;2024-03-02T06:26:09;94359.00;;;3.55;100.00
70559;BME280;58108;48.094;11.838;2024-03-02T06:28:34;94362.13;;;3.61;100.00
70559;BME280;58108;48.094;11.838;2024-03-02T06:31:00;94366.66;;;4.07;100.00
70559;BME280;58108;48.094;11.838;2024-03-02T06:33:26;94360.72;;;3.94;100.00
70559;BME280;58108;48.094;11.838;2024-03-02T06:35:52;94363.13;;;3.84;100.00
70559;BME280;58108;48.094;11.838;2024-03-02T06:38:17;94362.22;;;4.09;100.00
70559;BME280;58108;48.094;11.838;2024-03-02T06:40:43;94359.63;;;4.09;100.00
70559;BME280;58108;48.094;11.838;2024-03-02T06:43:08;94356.19;;;4.09;100.00
70559;BME280;58108;48.094;11.838;2024-03-02T06:45:34;94352.66;;;4.10;100.00
70559;BME280;58108;48.094;11.838;2024-03-02T06:48:00;94355.44;;;4.20;100.00
70559;BME280;58108;48.094;11.838;2024-03-02T06:50:25;94350.41;;;4.30;100.00
70559;BME280;58108;48.094;11.838;2024-03-02T06:52:52;94354.66;;;4.31;100.00
70559;BME280;58108;48.094;11.838;2024-03-02T06:55:17;94349.22;;;4.22;100.00
70559;BME280;58108;48.094;11.838;2024-03-02T06:57:43;94351.69;;;4.00;100.00
70559;BME280;58108;48.094;11.838;2024-03-02T07:00:09;94347.91;;;4.04;100.00
70559;BME280;58108;48.094;11.838;2024-03-02T07:02:35;94347.16;;;4.15;100.00
70559;BME280;58108;48.094;11.838;2024-03-02T07:05:02;94344.88;;;4.23;100.00
70559;BME280;58108;48.094;11.838;2024-03-02T07:07:28;94352.00;;;4.44;100.00
70559;BME280;58108;48.094;11.838;2024-03-02T07:09:53;94340.78;;;4.68;100.00
70559;BME280;58108;48.094;11.838;2024-03-02T07:12:19;94339.88;;;4.80;100.00
70559;BME280;58108;48.094;11.838;2024-03-02T07:14:44;94340.47;;;4.84;100.00
70559;BME280;58108;48.094;11.838;2024-03-02T07:17:22;94347.91;;;4.88;100.00
70559;BME280;58108;48.094;11.838;2024-03-02T07:19:48;94355.97;;;5.08;100.00
70559;BME280;58108;48.094;11.838;2024-03-02T07:22:13;94350.63;;;4.87;100.00
70559;BME280;58108;48.094;11.838;2024-03-02T07:24:43;94354.63;;;4.79;100.00
70559;BME280;58108;48.094;11.838;2024-03-02T07:27:12;94351.44;;;4.76;100.00
70559;BME280;58108;48.094;11.838;2024-03-02T07:29:39;94347.06;;;4.76;100.00
70559;BME280;58108;48.094;11.838;2024-03-02T07:32:05;94352.34;;;4.75;100.00
70559;BME280;58108;48.094;11.838;2024-03-02T07:34:31;94349.03;;;4.73;100.00
70559;BME280;58108;48.094;11.838;2024-03-02T07:36:57;94353.88;;;4.77;100.00
70559;BME280;58108;48.094;11.838;2024-03-02T07:39:23;94350.34;;;4.78;100.00
70559;BME280;58108;48.094;11.838;2024-03-02T07:41:49;94350.13;;;4.82;100.00
70559;BME280;58108;48.094;11.838;2024-03-02T07:44:14;94358.97;;;4.79;100.00
70559;BME280;58108;48.094;11.838;2024-03-02T07:46:43;94357.91;;;4.82;100.00
70559;BME280;58108;48.094;11.838;2024-03-02T07:49:09;94356.44;;;5.02;100.00
70559;BME280;58108;48.094;11.838;2024-03-02T07:51:35;94352.03;;;4.79;100.00
70559;BME280;58108;48.094;11.838;2024-03-02T07:54:01;94351.78;;;4.83;100.00
70559;BME280;58108;48.094;11.838;2024-03-02T07:56:27;94366.56;;;5.05;100.00
70559;BME280;58108;48.094;11.838;2024-03-02T07:58:53;94359.13;;;5.00;100.00
70559;BME280;58108;48.094;11.838;2024-03-02T08:01:19;94359.66;;;5.17;100.00
70559;BME280;58108;48.094;11.838;2024-03-02T08:03:45;94367.69;;;5.25;100.00
70559;BME280;58108;48.094;11.838;2024-03-02T08:06:18;94364.59;;;5.20;100.00
70559;BME280;58108;48.094;11.838;2024-03-02T08:08:47;94376.13;;;5.04;100.00
70559;BME280;58108;48.094;11.838;2024-03-02T08:11:12;94372.97;;;5.24;100.00
70559;BME280;58108;48.094;11.838;2024-03-02T08:13:38;94377.25;;;5.47;100.00
70559;BME280;58108;48.094;11.838;2024-03-02T08:16:03;94374.75;;;5.46;100.00
70559;BME280;58108;48.094;11.838;2024-03-02T08:18:32;94371.09;;;5.94;100.00
70559;BME280;58108;48.094;11.838;2024-03-02T08:20:58;94377.72;;;5.98;100.00
70559;BME280;58108;48.094;11.838;2024-03-02T08:23:23;94380.41;;;5.97;100.00
70559;BME280;58108;48.094;11.838;2024-03-02T08:25:49;94383.59;;;6.35;100.00
70559;BME280;58108;48.094;11.838;2024-03-02T08:28:15;94381.56;;;6.71;100.00
70559;BME280;58108;48.094;11.838;2024-03-02T08:30:40;94385.06;;;6.60;100.00
70559;BME280;58108;48.094;11.838;2024-03-02T08:33:05;94384.09;;;6.61;100.00
70559;BME280;58108;48.094;11.838;2024-03-02T08:35:31;94389.19;;;6.63;100.00
70559;BME280;58108;48.094;11.838;2024-03-02T08:38:03;94391.47;;;6.45;100.00
70559;BME280;58108;48.094;11.838;2024-03-02T08:40:30;94392.78;;;6.39;100.00
70559;BME280;58108;48.094;11.838;2024-03-02T08:42:55;94390.44;;;6.36;100.00
70559;BME280;58108;48.094;11.838;2024-03-02T08:45:21;94390.94;;;6.62;100.00
70559;BME280;58108;48.094;11.838;2024-03-02T08:47:47;94394.16;;;6.54;100.00
70559;BME280;58108;48.094;11.838;2024-03-02T08:50:12;94390.38;;;6.80;100.00
70559;BME280;58108;48.094;11.838;2024-03-02T08:52:38;94395.00;;;6.88;100.00
70559;BME280;58108;48.094;11.838;2024-03-02T08:55:04;94384.09;;;6.94;100.00
70559;BME280;58108;48.094;11.838;2024-03-02T08:57:30;94388.25;;;7.06;100.00
70559;BME280;58108;48.094;11.838;2024-03-02T08:59:56;94383.97;;;7.17;100.00
70559;BME280;58108;48.094;11.838;2024-03-02T09:02:22;94384.63;;;7.40;100.00
70559;BME280;58108;48.094;11.838;2024-03-02T09:04:48;94378.31;;;7.64;100.00
70559;BME280;58108;48.094;11.838;2024-03-02T09:07:14;94376.91;;;7.60;100.00
70559;BME280;58108;48.094;11.838;2024-03-02T09:09:40;94386.25;;;7.31;100.00
70559;BME280;58108;48.094;11.838;2024-03-02T09:12:06;94387.31;;;7.29;100.00
70559;BME280;58108;48.094;11.838;2024-03-02T09:14:32;94387.38;;;7.17;100.00
70559;BME280;58108;48.094;11.838;2024-03-02T09:16:58;94384.63;;;7.40;100.00
70559;BME280;58108;48.094;11.838;2024-03-02T09:19:23;94390.16;;;7.47;100.00
70559;BME280;58108;48.094;11.838;2024-03-02T09:21:49;94389.59;;;7.43;100.00
70559;BME280;58108;48.094;11.838;2024-03-02T09:24:15;94387.13;;;7.42;100.00
70559;BME280;58108;48.094;11.838;2024-03-02T09:26:41;94382.16;;;7.38;100.00
70559;BME280;58108;48.094;11.838;2024-03-02T09:29:06;94382.66;;;7.11;100.00
70559;BME280;58108;48.094;11.838;2024-03-02T09:31:32;94378.72;;;7.38;100.00
70559;BME280;58108;48.094;11.838;2024-03-02T09:33:57;94374.53;;;7.47;100.00
70559;BME280;58108;48.094;11.838;2024-03-02T09:36:24;94373.75;;;7.56;100.00
70559;BME280;58108;48.094;11.838;2024-03-02T09:38:49;94380.09;;;7.63;100.00
70559;BME280;58108;48.094;11.838;2024-03-02T09:41:15;94377.19;;;7.57;100.00
70559;BME280;58108;48.094;11.838;2024-03-02T09:43:41;94379.81;;;7.66;100.00
70559;BME280;58108;48.094;11.838;2024-03-02T09:46:10;94386.53;;;7.90;100.00
70559;BME280;58108;48.094;11.838;2024-03-02T09:48:36;94384.50;;;8.04;100.00
70559;BME280;58108;48.094;11.838;2024-03-02T09:51:04;94374.44;;;8.50;100.00
70559;BME280;58108;48.094;11.838;2024-03-02T09:53:32;94370.50;;;8.85;100.00
70559;BME280;58108;48.094;11.838;2024-03-02T09:56:01;94370.78;;;8.82;100.00
70559;BME280;58108;48.094;11.838;2024-03-02T09:58:26;94367.88;;;9.05;100.00
70559;BME280;58108;48.094;11.838;2024-03-02T10:00:52;94365.34;;;9.33;100.00
70559;BME280;58108;48.094;11.838;2024-03-02T10:03:22;94369.38;;;9.18;100.00
70559;BME280;58108;48.094;11.838;2024-03-02T10:05:48;94363.81;;;9.40;100.00
70559;BME280;58108;48.094;11.838;2024-03-02T10:08:14;94365.66;;;9.30;100.00
70559;BME280;58108;48.094;11.838;2024-03-02T10:10:40;94355.97;;;9.50;100.00
70559;BME280;58108;48.094;11.838;2024-03-02T10:13:12;94355.94;;;9.60;99.18
70559;BME280;58108;48.094;11.838;2024-03-02T10:15:40;94354.03;;;9.52;100.00
70559;BME280;58108;48.094;11.838;2024-03-02T10:18:12;94356.97;;;9.39;99.32
70559;BME280;58108;48.094;11.838;2024-03-02T10:20:39;94352.69;;;9.48;100.00
70559;BME280;58108;48.094;11.838;2024-03-02T10:23:15;94347.00;;;9.91;97.83
70559;BME280;58108;48.094;11.838;2024-03-02T10:25:42;94351.78;;;10.51;96.19
70559;BME280;58108;48.094;11.838;2024-03-02T10:28:07;94349.19;;;10.88;91.87
70559;BME280;58108;48.094;11.838;2024-03-02T10:30:33;94345.72;;;10.87;89.36
70559;BME280;58108;48.094;11.838;2024-03-02T10:33:01;94342.22;;;10.60;88.76
70559;BME280;58108;48.094;11.838;2024-03-02T10:35:27;94344.91;;;10.69;87.71
70559;BME280;58108;48.094;11.838;2024-03-02T10:37:53;94333.72;;;11.03;86.49
70559;BME280;58108;48.094;11.838;2024-03-02T10:40:21;94333.41;;;11.51;79.50
70559;BME280;58108;48.094;11.838;2024-03-02T10:42:47;94327.06;;;11.08;78.40
70559;BME280;58108;48.094;11.838;2024-03-02T10:45:15;94328.94;;;10.98;78.29
70559;BME280;58108;48.094;11.838;2024-03-02T10:47:43;94315.63;;;11.36;78.64
70559;BME280;58108;48.094;11.838;2024-03-02T10:50:10;94313.72;;;11.81;80.32
70559;BME280;58108;48.094;11.838;2024-03-02T10:52:36;94318.41;;;11.69;78.00
70559;BME280;58108;48.094;11.838;2024-03-02T10:55:02;94308.78;;;10.90;78.89
70559;BME280;58108;48.094;11.838;2024-03-02T10:57:41;94311.13;;;11.02;79.37
70559;BME280;58108;48.094;11.838;2024-03-02T11:00:08;94309.81;;;11.24;81.68
70559;BME280;58108;48.094;11.838;2024-03-02T11:02:56;94300.00;;;11.00;81.51
70559;BME280;58108;48.094;11.838;2024-03-02T11:05:26;94306.13;;;11.08;82.50
70559;BME280;58108;48.094;11.838;2024-03-02T11:08:06;94296.97;;;11.13;84.54
70559;BME280;58108;48.094;11.838;2024-03-02T11:10:39;94292.78;;;11.02;83.08
70559;BME280;58108;48.094;11.838;2024-03-02T11:13:11;94289.53;;;10.82;83.73
70559;BME280;58108;48.094;11.838;2024-03-02T11:15:39;94285.50;;;11.14;82.20
70559;BME280;58108;48.094;11.838;2024-03-02T11:18:06;94283.44;;;10.99;80.81
70559;BME280;58108;48.094;11.838;2024-03-02T11:20:40;94283.53;;;10.45;80.26
70559;BME280;58108;48.094;11.838;2024-03-02T11:23:10;94277.19;;;11.18;81.94
70559;BME280;58108;48.094;11.838;2024-03-02T11:25:36;94278.56;;;11.31;79.22
70559;BME280;58108;48.094;11.838;2024-03-02T11:28:03;94274.16;;;10.78;83.03
70559;BME280;58108;48.094;11.838;2024-03-02T11:33:07;94260.44;;;11.81;79.46
70559;BME280;58108;48.094;11.838;2024-03-02T11:35:34;94250.88;;;13.14;74.94
70559;BME280;58108;48.094;11.838;2024-03-02T11:38:01;94248.09;;;13.16;73.25
70559;BME280;58108;48.094;11.838;2024-03-02T11:40:27;94252.16;;;13.35;73.29
70559;BME280;58108;48.094;11.838;2024-03-02T11:42:53;94253.31;;;14.44;68.25
70559;BME280;58108;48.094;11.838;2024-03-02T11:45:37;94243.31;;;13.27;67.56
70559;BME280;58108;48.094;11.838;2024-03-02T11:48:08;94238.47;;;13.96;67.30
70559;BME280;58108;48.094;11.838;2024-03-02T11:50:47;94237.69;;;13.47;70.61
70559;BME280;58108;48.094;11.838;2024-03-02T11:53:14;94237.19;;;15.99;60.99
70559;BME280;58108;48.094;11.838;2024-03-02T11:55:40;94225.16;;;17.69;57.25
70559;BME280;58108;48.094;11.838;2024-03-02T11:58:07;94221.84;;;18.02;50.91
70559;BME280;58108;48.094;11.838;2024-03-02T12:00:32;94213.06;;;19.32;49.53
70559;BME280;58108;48.094;11.838;2024-03-02T12:03:09;94213.94;;;18.09;47.98
70559;BME280;58108;48.094;11.838;2024-03-02T12:05:35;94212.63;;;18.47;45.16
70559;BME280;58108;48.094;11.838;2024-03-02T12:08:05;94208.47;;;18.17;48.08
70559;BME280;58108;48.094;11.838;2024-03-02T12:10:35;94203.84;;;18.67;45.66
70559;BME280;58108;48.094;11.838;2024-03-02T12:13:06;94200.78;;;17.81;46.04
70559;BME280;58108;48.094;11.838;2024-03-02T12:15:37;94199.41;;;17.92;48.03
70559;BME280;58108;48.094;11.838;2024-03-02T12:18:03;94207.59;;;17.55;47.36
70559;BME280;58108;48.094;11.838;2024-03-02T12:20:30;94202.47;;;19.11;45.85
70559;BME280;58108;48.094;11.838;2024-03-02T12:22:58;94199.56;;;18.66;46.22
70559;BME280;58108;48.094;11.838;2024-03-02T12:25:25;94198.00;;;19.05;44.98
70559;BME280;58108;48.094;11.838;2024-03-02T12:27:53;94191.81;;;18.78;45.30
70559;BME280;58108;48.094;11.838;2024-03-02T12:30:19;94180.34;;;19.45;44.09
70559;BME280;58108;48.094;11.838;2024-03-02T12:32:46;94182.88;;;18.72;46.27
70559;BME280;58108;48.094;11.838;2024-03-02T12:35:12;94181.25;;;18.84;44.83
70559;BME280;58108;48.094;11.838;2024-03-02T12:37:49;94176.94;;;18.50;44.62
70559;BME280;58108;48.094;11.838;2024-03-02T12:40:18;94177.31;;;17.22;45.38
70559;BME280;58108;48.094;11.838;2024-03-02T12:42:45;94172.34;;;17.12;46.66
70559;BME280;58108;48.094;11.838;2024-03-02T12:45:12;94163.00;;;18.14;48.04
70559;BME280;58108;48.094;11.838;2024-03-02T12:47:39;94161.47;;;19.73;42.21
70559;BME280;58108;48.094;11.838;2024-03-02T12:50:06;94153.81;;;20.04;40.90
70559;BME280;58108;48.094;11.838;2024-03-02T12:52:31;94153.03;;;20.29;41.46